createdAt,value
2019-03-23T00:00:30.186Z,4.80
2019-03-23T00:03:37.632Z,8.60
2019-03-23T00:06:44.536Z,4.63
2019-03-23T00:09:51.680Z,8.03
2019-03-23T00:12:59.234Z,4.53
2019-03-23T00:16:06.246Z,5.70
2019-03-23T00:19:13.180Z,7.47
2019-03-23T00:22:20.359Z,4.50
2019-03-23T00:25:27.786Z,4.20
2019-03-23T00:28:34.728Z,8.83
2019-03-23T00:31:41.699Z,2.97
2019-03-23T00:34:48.999Z,4.50
2019-03-23T00:37:56.494Z,6.97
2019-03-23T00:41:03.791Z,6.33
2019-03-23T00:44:11.305Z,7.60
2019-03-23T00:47:19.310Z,4.23
2019-03-23T00:50:26.424Z,5.27
2019-03-23T00:53:33.355Z,5.70
2019-03-23T00:56:40.672Z,5.57
2019-03-23T00:59:47.652Z,3.30
2019-03-23T01:02:54.994Z,3.40
2019-03-23T01:06:02.137Z,3.80
2019-03-23T01:09:09.583Z,5.70
2019-03-23T01:12:17.274Z,3.70
2019-03-23T01:15:24.336Z,4.10
2019-03-23T01:18:31.360Z,3.73
2019-03-23T01:21:38.877Z,3.83
2019-03-23T01:24:46.754Z,5.77
2019-03-23T01:27:53.696Z,4.10
2019-03-23T01:31:00.941Z,9.10
2019-03-23T01:34:08.114Z,8.20
2019-03-23T01:37:15.332Z,4.50
2019-03-23T01:40:22.518Z,6.73
2019-03-23T01:43:29.624Z,7.53
2019-03-23T01:46:36.997Z,9.20
2019-03-23T01:49:44.034Z,7.53
2019-03-23T01:52:50.931Z,9.13
2019-03-23T01:55:57.943Z,9.83
2019-03-23T01:59:05.262Z,8.03
2019-03-23T02:02:12.054Z,10.40
2019-03-23T02:05:19.981Z,6.30
2019-03-23T02:08:26.893Z,8.57
2019-03-23T02:11:34.330Z,12.07
2019-03-23T02:14:41.151Z,8.30
2019-03-23T02:17:48.167Z,8.80
2019-03-23T02:20:55.504Z,9.30
2019-03-23T02:24:02.518Z,6.70
2019-03-23T02:27:09.624Z,9.97
2019-03-23T02:30:17.099Z,6.97
2019-03-23T02:33:24.229Z,6.13
2019-03-23T02:36:31.153Z,7.57
2019-03-23T02:39:38.092Z,5.33
2019-03-23T02:42:44.881Z,12.90
2019-03-23T02:45:51.618Z,7.37
2019-03-23T02:48:58.693Z,6.00
2019-03-23T02:52:05.666Z,5.03
2019-03-23T02:55:13.432Z,4.30
2019-03-23T02:58:20.528Z,7.93
2019-03-23T03:01:28.025Z,7.27
2019-03-23T03:04:34.925Z,4.00
2019-03-23T03:07:43.567Z,5.33
2019-03-23T03:10:50.573Z,4.40
2019-03-23T03:13:57.781Z,4.23
2019-03-23T03:17:04.841Z,4.20
2019-03-23T03:20:12.171Z,4.63
2019-03-23T03:23:19.814Z,9.00
2019-03-23T03:26:27.198Z,3.97
2019-03-23T03:29:34.456Z,3.63
2019-03-23T03:32:41.874Z,3.70
2019-03-23T03:35:48.798Z,4.47
2019-03-23T03:38:56.165Z,4.83
2019-03-23T03:42:03.263Z,4.13
2019-03-23T03:45:11.920Z,5.47
2019-03-23T03:48:18.937Z,3.97
2019-03-23T03:51:26.422Z,9.40
2019-03-23T03:54:34.450Z,4.20
2019-03-23T03:57:42.003Z,3.23
2019-03-23T04:00:52.653Z,3.27
2019-03-23T04:04:00.097Z,3.53
2019-03-23T04:07:09.273Z,4.73
2019-03-23T04:10:17.031Z,3.40
2019-03-23T04:13:25.785Z,3.03
2019-03-23T04:16:33.033Z,6.00
2019-03-23T04:19:40.397Z,3.30
2019-03-23T04:22:47.524Z,3.23
2019-03-23T04:25:54.792Z,3.37
2019-03-23T04:29:01.832Z,3.37
2019-03-23T04:32:09.856Z,3.23
2019-03-23T04:35:17.283Z,3.07
2019-03-23T04:38:24.443Z,3.83
2019-03-23T04:41:31.885Z,3.00
2019-03-23T04:44:39.054Z,4.57
2019-03-23T04:47:47.019Z,4.60
2019-03-23T04:50:53.989Z,11.43
2019-03-23T04:54:01.230Z,3.23
2019-03-23T04:57:08.193Z,3.37
2019-03-23T05:00:16.383Z,3.77
2019-03-23T05:03:23.511Z,4.60
2019-03-23T05:06:31.691Z,3.03
2019-03-23T05:09:38.617Z,3.10
2019-03-23T05:12:46.004Z,2.90
2019-03-23T05:15:53.306Z,3.30
2019-03-23T05:19:00.152Z,2.80
2019-03-23T05:22:07.660Z,2.70
2019-03-23T05:25:24.531Z,5.80
2019-03-23T05:28:31.777Z,4.47
2019-03-23T05:31:38.728Z,3.27
2019-03-23T05:34:45.816Z,4.10
2019-03-23T05:37:52.719Z,2.77
2019-03-23T05:40:59.606Z,3.13
2019-03-23T05:44:06.436Z,3.87
2019-03-23T05:47:13.635Z,2.40
2019-03-23T05:50:21.938Z,5.03
2019-03-23T05:53:29.183Z,2.77
2019-03-23T05:56:36.462Z,3.27
2019-03-23T05:59:43.531Z,5.60
2019-03-23T06:02:50.774Z,5.23
2019-03-23T06:05:58.279Z,4.20
2019-03-23T06:09:07.439Z,6.10
2019-03-23T06:12:17.726Z,2.70
2019-03-23T06:15:24.957Z,3.37
2019-03-23T06:18:32.081Z,3.33
2019-03-23T06:21:39.627Z,3.43
2019-03-23T06:24:47.398Z,3.03
2019-03-23T06:27:56.210Z,3.53
2019-03-23T06:31:04.431Z,4.10
2019-03-23T06:34:11.403Z,3.50
2019-03-23T06:37:18.819Z,3.63
2019-03-23T06:40:25.876Z,3.20
2019-03-23T06:43:33.114Z,3.67
2019-03-23T06:46:41.285Z,3.03
2019-03-23T06:49:48.465Z,12.10
2019-03-23T06:52:55.517Z,4.07
2019-03-23T06:56:02.776Z,2.70
2019-03-23T06:59:09.870Z,3.70
2019-03-23T07:02:17.252Z,3.40
2019-03-23T07:05:24.372Z,3.60
2019-03-23T07:08:32.368Z,3.50
2019-03-23T07:11:39.888Z,2.87
2019-03-23T07:14:46.816Z,2.80
2019-03-23T07:17:54.142Z,4.60
2019-03-23T07:21:01.009Z,5.17
2019-03-23T07:24:08.365Z,3.50
2019-03-23T07:27:15.823Z,3.90
2019-03-23T07:30:23.576Z,3.27
2019-03-23T07:33:31.183Z,3.90
2019-03-23T07:36:39.120Z,5.67
2019-03-23T07:39:47.164Z,3.60
2019-03-23T07:42:54.149Z,4.63
2019-03-23T07:46:01.583Z,4.10
2019-03-23T07:49:09.190Z,3.80
2019-03-23T07:52:16.687Z,3.50
2019-03-23T07:55:23.807Z,3.37
2019-03-23T07:58:30.909Z,2.90
2019-03-23T08:01:38.503Z,3.13
2019-03-23T08:04:45.374Z,3.07
2019-03-23T08:07:52.364Z,3.33
2019-03-23T08:10:59.853Z,4.67
2019-03-23T08:14:07.084Z,5.37
2019-03-23T08:17:14.252Z,2.93
2019-03-23T08:20:21.305Z,2.90
2019-03-23T08:23:28.420Z,4.57
2019-03-23T08:26:36.297Z,4.87
2019-03-23T08:29:43.251Z,3.33
2019-03-23T08:32:53.133Z,7.37
2019-03-23T08:36:00.292Z,3.83
2019-03-23T08:39:08.418Z,4.90
2019-03-23T08:42:15.867Z,16.83
2019-03-23T08:45:23.385Z,15.00
2019-03-23T08:48:30.631Z,10.87
2019-03-23T08:51:37.903Z,9.30
2019-03-23T08:54:44.634Z,11.43
2019-03-23T08:57:51.839Z,13.17
2019-03-23T09:01:00.394Z,15.23
2019-03-23T09:04:08.757Z,14.80
2019-03-23T09:07:15.988Z,10.50
2019-03-23T09:10:23.955Z,10.77
2019-03-23T09:13:40.255Z,15.83
2019-03-23T09:16:41.022Z,15.73
2019-03-23T09:19:48.348Z,15.37
2019-03-23T09:22:55.572Z,17.93
2019-03-23T09:26:02.586Z,17.10
2019-03-23T09:29:09.882Z,17.77
2019-03-23T09:32:17.109Z,16.93
2019-03-23T09:35:24.741Z,15.47
2019-03-23T09:38:31.975Z,16.77
2019-03-23T09:41:39.218Z,16.50
2019-03-23T09:44:46.079Z,17.53
2019-03-23T09:47:53.295Z,15.47
2019-03-23T09:51:01.094Z,18.90
2019-03-23T09:54:08.391Z,15.60
2019-03-23T09:57:15.468Z,18.27
2019-03-23T10:00:22.769Z,16.60
2019-03-23T10:03:29.847Z,14.40
2019-03-23T10:06:37.499Z,14.97
2019-03-23T10:09:44.497Z,15.30
2019-03-23T10:12:53.190Z,14.57
2019-03-23T10:16:00.389Z,15.63
2019-03-23T10:19:07.496Z,16.40
2019-03-23T10:22:14.508Z,18.00
2019-03-23T10:25:21.851Z,18.97
2019-03-23T10:28:29.902Z,20.10
2019-03-23T10:31:42.793Z,20.37
2019-03-23T10:34:51.837Z,18.00
2019-03-23T10:37:59.566Z,23.13
2019-03-23T10:41:09.359Z,29.87
2019-03-23T10:44:16.315Z,19.50
2019-03-23T10:47:23.415Z,23.03
2019-03-23T10:50:31.233Z,20.07
2019-03-23T10:53:38.762Z,20.33
2019-03-23T10:56:46.141Z,23.60
2019-03-23T10:59:53.118Z,19.83
2019-03-23T11:03:00.868Z,20.00
2019-03-23T11:06:08.456Z,26.80
2019-03-23T11:09:15.917Z,17.73
2019-03-23T11:12:23.881Z,22.17
2019-03-23T11:15:30.636Z,20.53
2019-03-23T11:18:37.961Z,23.10
2019-03-23T11:21:44.942Z,19.50
2019-03-23T11:24:52.316Z,19.33
2019-03-23T11:27:59.402Z,19.90
2019-03-23T11:31:06.970Z,25.23
2019-03-23T11:34:18.067Z,17.53
2019-03-23T11:37:23.523Z,21.03
2019-03-23T11:40:30.859Z,24.60
2019-03-23T11:43:38.483Z,21.30
2019-03-23T11:46:45.838Z,18.20
2019-03-23T11:49:53.487Z,13.30
2019-03-23T11:53:00.821Z,16.03
2019-03-23T11:56:08.852Z,15.03
2019-03-23T11:59:16.438Z,17.60
2019-03-23T12:02:23.543Z,19.13
2019-03-23T12:05:32.127Z,14.00
2019-03-23T12:08:40.151Z,14.53
2019-03-23T12:11:48.442Z,18.00
2019-03-23T12:14:56.272Z,44.03
2019-03-23T12:18:04.018Z,19.00
2019-03-23T12:21:11.773Z,22.10
2019-03-23T12:24:18.432Z,19.17
2019-03-23T12:27:25.758Z,16.10
2019-03-23T12:30:32.869Z,18.77
2019-03-23T12:33:40.559Z,26.70
2019-03-23T12:36:48.047Z,18.97
2019-03-23T12:39:56.303Z,18.20
2019-03-23T12:43:03.423Z,18.57
2019-03-23T12:46:10.728Z,17.03
2019-03-23T12:49:18.224Z,19.43
2019-03-23T12:52:25.754Z,20.10
2019-03-23T12:55:33.881Z,28.77
2019-03-23T12:58:41.184Z,26.87
2019-03-23T13:01:48.432Z,30.67
2019-03-23T13:04:55.815Z,25.77
2019-03-23T13:08:03.088Z,26.00
2019-03-23T13:11:10.458Z,28.67
2019-03-23T13:14:17.799Z,30.40
2019-03-23T13:17:25.948Z,29.93
2019-03-23T13:23:40.519Z,34.90
2019-03-23T13:26:47.521Z,26.33
2019-03-23T13:29:56.021Z,28.13
2019-03-23T13:33:04.768Z,34.17
2019-03-23T13:36:12.458Z,29.30
2019-03-23T13:39:19.708Z,31.40
2019-03-23T13:42:27.265Z,26.67
2019-03-23T13:45:42.374Z,28.97
2019-03-23T13:48:43.678Z,27.23
2019-03-23T13:51:51.087Z,26.07
2019-03-23T13:54:59.287Z,28.07
2019-03-23T13:58:13.541Z,22.93
2019-03-23T14:01:25.014Z,20.53
2019-03-23T14:04:32.736Z,20.60
2019-03-23T14:07:39.912Z,20.50
2019-03-23T14:10:46.980Z,23.90
2019-03-23T14:13:54.851Z,23.90
2019-03-23T14:17:02.091Z,23.00
2019-03-23T14:20:09.540Z,27.93
2019-03-23T14:23:16.619Z,31.60
2019-03-23T14:26:24.150Z,28.60
2019-03-23T14:29:31.274Z,29.10
2019-03-23T14:32:39.468Z,28.07
2019-03-23T14:35:46.954Z,33.67
2019-03-23T14:38:55.146Z,34.73
2019-03-23T14:42:05.119Z,31.63
2019-03-23T14:45:12.345Z,41.17
2019-03-23T14:48:19.687Z,35.03
2019-03-23T14:51:27.791Z,33.83
2019-03-23T14:54:36.534Z,33.87
2019-03-23T14:57:43.821Z,33.00
2019-03-23T15:00:51.076Z,94.53
2019-03-23T15:03:58.305Z,39.53
2019-03-23T15:07:05.724Z,31.97
2019-03-23T15:10:13.569Z,39.00
2019-03-23T15:13:24.405Z,38.43
2019-03-23T15:16:31.606Z,42.30
2019-03-23T15:19:38.914Z,40.30
2019-03-23T15:22:47.557Z,51.47
2019-03-23T15:25:54.906Z,64.47
2019-03-23T15:29:02.286Z,71.60
2019-03-23T15:32:09.394Z,70.70
2019-03-23T15:35:16.604Z,70.73
2019-03-23T15:38:23.680Z,74.90
2019-03-23T15:41:31.116Z,79.63
2019-03-23T15:44:38.127Z,81.63
2019-03-23T15:47:45.476Z,79.50
2019-03-23T15:50:52.876Z,73.50
2019-03-23T15:54:00.207Z,86.23
2019-03-23T15:57:07.089Z,78.03
2019-03-23T16:00:14.402Z,90.10
2019-03-23T16:03:22.219Z,84.77
2019-03-23T16:06:29.277Z,85.33
2019-03-23T16:09:36.608Z,96.93
2019-03-23T16:12:44.398Z,93.20
2019-03-23T16:15:51.695Z,89.17
2019-03-23T16:18:58.780Z,92.27
2019-03-23T16:22:05.944Z,98.97
2019-03-23T16:25:15.002Z,102.57
2019-03-23T16:28:22.663Z,100.57
2019-03-23T16:31:29.840Z,103.77
2019-03-23T16:34:37.861Z,94.00
2019-03-23T16:37:45.035Z,99.77
2019-03-23T16:40:52.553Z,96.03
2019-03-23T16:44:01.314Z,92.63
2019-03-23T16:47:08.402Z,89.53
2019-03-23T16:50:16.061Z,93.97
2019-03-23T16:53:23.071Z,78.50
2019-03-23T16:56:30.638Z,85.37
2019-03-23T16:59:38.374Z,87.57
2019-03-23T17:02:45.327Z,78.10
2019-03-23T17:05:53.756Z,73.17
2019-03-23T17:09:00.920Z,74.23
2019-03-23T17:12:09.450Z,70.63
2019-03-23T17:15:16.981Z,59.47
2019-03-23T17:18:24.291Z,70.23
2019-03-23T17:21:32.031Z,71.73
2019-03-23T17:24:39.519Z,71.70
2019-03-23T17:27:47.331Z,72.77
2019-03-23T17:30:56.821Z,66.97
2019-03-23T17:34:04.104Z,64.87
2019-03-23T17:37:11.277Z,70.87
2019-03-23T17:40:18.349Z,70.00
2019-03-23T17:43:25.512Z,65.07
2019-03-23T17:46:32.718Z,65.23
2019-03-23T17:49:40.251Z,77.10
2019-03-23T17:52:47.549Z,70.17
2019-03-23T17:55:54.620Z,75.37
2019-03-23T19:36:08.883Z,48.03
2019-03-23T19:39:15.320Z,52.30
2019-03-23T19:42:20.256Z,47.73
2019-03-23T19:45:27.302Z,43.97
2019-03-23T19:48:32.493Z,46.87
2019-03-23T19:51:41.029Z,41.23
2019-03-23T19:54:46.397Z,43.93
2019-03-23T19:57:54.581Z,38.93
2019-03-23T20:00:57.744Z,47.13
2019-03-23T20:04:02.676Z,40.10
2019-03-23T20:07:08.509Z,50.27
2019-03-23T20:10:14.492Z,39.53
2019-03-23T20:13:19.857Z,45.10
2019-03-23T20:16:25.463Z,40.97
2019-03-23T20:19:30.902Z,39.83
2019-03-23T20:22:35.691Z,48.53
2019-03-23T20:28:45.726Z,49.43
2019-03-23T20:34:55.668Z,43.93
2019-03-23T20:41:06.779Z,53.03
2019-03-23T20:44:11.510Z,46.07
2019-03-23T20:47:19.428Z,42.63
2019-03-23T20:50:24.616Z,35.23
2019-03-23T20:53:29.482Z,37.73
2019-03-23T20:56:35.717Z,41.47
2019-03-23T20:59:40.614Z,38.30
2019-03-23T21:02:45.518Z,45.30
2019-03-23T21:05:52.979Z,34.37
2019-03-23T21:08:58.418Z,41.83
2019-03-23T21:12:04.133Z,43.77
2019-03-23T21:15:08.890Z,45.57
2019-03-23T21:18:13.885Z,41.40
2019-03-23T21:21:20.908Z,44.20
2019-03-23T21:24:26.297Z,46.47
2019-03-23T21:27:32.160Z,43.43
2019-03-23T21:30:37.350Z,43.00
2019-03-23T21:33:44.342Z,43.97
2019-03-23T21:36:49.521Z,39.83
2019-03-23T21:39:54.425Z,44.83
2019-03-23T21:42:59.309Z,42.57
2019-03-23T21:46:04.281Z,44.37
2019-03-23T21:49:09.392Z,53.27
2019-03-23T21:55:19.353Z,59.40
2019-03-23T22:01:45.392Z,53.23
2019-03-23T22:04:50.613Z,56.03
2019-03-23T22:07:55.393Z,62.10
2019-03-23T22:11:00.323Z,90.20
2019-03-23T22:14:06.060Z,103.77
2019-03-23T22:17:11.226Z,97.90
2019-03-23T22:20:16.478Z,90.30
2019-03-23T22:23:23.498Z,97.00
2019-03-23T22:26:30.205Z,86.80
2019-03-23T22:29:35.403Z,56.97
2019-03-23T22:32:40.312Z,74.00
2019-03-23T22:35:45.418Z,64.60
2019-03-23T22:38:50.807Z,59.00
2019-03-23T22:41:56.970Z,53.53
2019-03-23T22:45:02.956Z,98.63
2019-03-23T22:48:08.311Z,74.20
2019-03-23T22:51:14.770Z,63.23
2019-03-23T22:57:24.892Z,66.97
2019-03-23T23:00:34.298Z,60.83
2019-03-23T23:03:40.308Z,54.23
2019-03-23T23:06:46.118Z,56.03
2019-03-23T23:09:51.014Z,50.10
2019-03-23T23:12:56.534Z,46.23
2019-03-23T23:16:01.660Z,57.50
2019-03-23T23:19:06.760Z,62.40
2019-03-23T23:25:16.285Z,58.20
2019-03-23T23:28:21.655Z,59.73
2019-03-23T23:31:27.544Z,58.57
2019-03-23T23:37:37.396Z,48.50
2019-03-23T23:40:42.520Z,53.50
2019-03-23T23:43:47.765Z,49.10
2019-03-23T23:49:56.734Z,47.97
2019-03-23T23:59:11.504Z,51.83
